<?xml version="1.0" encoding="UTF-8" standalone="no" ?>
<gpx xmlns="http://www.topografix.com/GPX/1/1" xmlns:xsi="http://www.w3.org/2001/XMLSchema-instance" xsi:schemaLocation="http://www.topografix.com/GPX/1/1 http://www.topografix.com/GPX/1/1/gpx.xsd" version="1.1" creator="VisuGPX - https://www.visugpx.com">
  <metadata>
    <name>Sautron AutourCens_7-11km</name>
    <desc><![CDATA[gnerando idor:6690004_6690109_8373530_14186267_]]></desc>
  </metadata>
  <trk>
    <name><![CDATA[Sautron_ValleesCensEtChézine_10.2kmine-6690004]]></name>
    <extensions>
      <line xmlns="http://www.topografix.com/GPX/gpx_style/0/2">
        <color>00FFFF</color>
        <width>4</width>
      </line>
    </extensions>
    <trkseg>
      <trkpt lat="47.26526" lon="-1.67944">
        <ele>68</ele>
        <time>2023-11-13T11:10:55Z</time>
      </trkpt>
      <trkpt lat="47.26522" lon="-1.67942">
        <ele>68</ele>
        <time>2023-11-13T11:11:01Z</time>
      </trkpt>
      <trkpt lat="47.26477" lon="-1.67968">
        <ele>67</ele>
        <time>2023-11-13T11:12:05Z</time>
      </trkpt>
      <trkpt lat="47.26447" lon="-1.67989">
        <ele>67</ele>
        <time>2023-11-13T11:12:49Z</time>
      </trkpt>
      <trkpt lat="47.26436" lon="-1.67988">
        <ele>67</ele>
        <time>2023-11-13T11:13:04Z</time>
      </trkpt>
      <trkpt lat="47.2642" lon="-1.67955">
        <ele>67</ele>
        <time>2023-11-13T11:13:41Z</time>
      </trkpt>
      <trkpt lat="47.26398" lon="-1.6796">
        <ele>67</ele>
        <time>2023-11-13T11:14:11Z</time>
      </trkpt>
      <trkpt lat="47.26396" lon="-1.67993">
        <ele>67</ele>
        <time>2023-11-13T11:14:41Z</time>
      </trkpt>
      <trkpt lat="47.2638" lon="-1.68006">
        <ele>66</ele>
        <time>2023-11-13T11:15:05Z</time>
      </trkpt>
      <trkpt lat="47.26358" lon="-1.68029">
        <ele>66</ele>
        <time>2023-11-13T11:15:41Z</time>
      </trkpt>
      <trkpt lat="47.26342" lon="-1.68047">
        <ele>65</ele>
        <time>2023-11-13T11:16:08Z</time>
      </trkpt>
      <trkpt lat="47.26311" lon="-1.68079">
        <ele>65</ele>
        <time>2023-11-13T11:16:58Z</time>
      </trkpt>
      <trkpt lat="47.26277" lon="-1.68037">
        <ele>64</ele>
        <time>2023-11-13T11:17:58Z</time>
      </trkpt>
      <trkpt lat="47.26248" lon="-1.68009">
        <ele>64</ele>
        <time>2023-11-13T11:18:44Z</time>
      </trkpt>
      <trkpt lat="47.2623" lon="-1.67996">
        <ele>63</ele>
        <time>2023-11-13T11:19:11Z</time>
      </trkpt>
      <trkpt lat="47.26217" lon="-1.68028">
        <ele>63</ele>
        <time>2023-11-13T11:19:44Z</time>
      </trkpt>
      <trkpt lat="47.26189" lon="-1.68088">
        <ele>62</ele>
        <time>2023-11-13T11:20:50Z</time>
      </trkpt>
      <trkpt lat="47.2617" lon="-1.68135">
        <ele>61</ele>
        <time>2023-11-13T11:21:40Z</time>
      </trkpt>
      <trkpt lat="47.2615" lon="-1.68191">
        <ele>59</ele>
        <time>2023-11-13T11:22:37Z</time>
      </trkpt>
      <trkpt lat="47.26149" lon="-1.68194">
        <ele>59</ele>
        <time>2023-11-13T11:22:40Z</time>
      </trkpt>
      <trkpt lat="47.26132" lon="-1.68175">
        <ele>59</ele>
        <time>2023-11-13T11:23:09Z</time>
      </trkpt>
      <trkpt lat="47.26109" lon="-1.68158">
        <ele>58</ele>
        <time>2023-11-13T11:23:43Z</time>
      </trkpt>
      <trkpt lat="47.26087" lon="-1.68161">
        <ele>57</ele>
        <time>2023-11-13T11:24:12Z</time>
      </trkpt>
      <trkpt lat="47.26067" lon="-1.68165">
        <ele>57</ele>
        <time>2023-11-13T11:24:39Z</time>
      </trkpt>
      <trkpt lat="47.26047" lon="-1.68167">
        <ele>57</ele>
        <time>2023-11-13T11:25:06Z</time>
      </trkpt>
      <trkpt lat="47.26024" lon="-1.68149">
        <ele>57</ele>
        <time>2023-11-13T11:25:41Z</time>
      </trkpt>
      <trkpt lat="47.26007" lon="-1.68126">
        <ele>57</ele>
        <time>2023-11-13T11:26:12Z</time>
      </trkpt>
      <trkpt lat="47.25999" lon="-1.68109">
        <ele>57</ele>
        <time>2023-11-13T11:26:30Z</time>
      </trkpt>
      <trkpt lat="47.25975" lon="-1.68131">
        <ele>57</ele>
        <time>2023-11-13T11:27:08Z</time>
      </trkpt>
      <trkpt lat="47.25925" lon="-1.68172">
        <ele>56</ele>
        <time>2023-11-13T11:28:25Z</time>
      </trkpt>
      <trkpt lat="47.25895" lon="-1.68201">
        <ele>55</ele>
        <time>2023-11-13T11:29:12Z</time>
      </trkpt>
      <trkpt lat="47.25859" lon="-1.68226">
        <ele>54</ele>
        <time>2023-11-13T11:30:06Z</time>
      </trkpt>
      <trkpt lat="47.25823" lon="-1.68254">
        <ele>53</ele>
        <time>2023-11-13T11:31:00Z</time>
      </trkpt>
      <trkpt lat="47.25783" lon="-1.68291">
        <ele>51</ele>
        <time>2023-11-13T11:32:03Z</time>
      </trkpt>
      <trkpt lat="47.25744" lon="-1.68313">
        <ele>51</ele>
        <time>2023-11-13T11:32:59Z</time>
      </trkpt>
      <trkpt lat="47.25711" lon="-1.68333">
        <ele>51</ele>
        <time>2023-11-13T11:33:46Z</time>
      </trkpt>
      <trkpt lat="47.25683" lon="-1.6836">
        <ele>51</ele>
        <time>2023-11-13T11:34:31Z</time>
      </trkpt>
      <trkpt lat="47.25675" lon="-1.68331">
        <ele>52</ele>
        <time>2023-11-13T11:34:59Z</time>
      </trkpt>
      <trkpt lat="47.25667" lon="-1.68295">
        <ele>52</ele>
        <time>2023-11-13T11:35:34Z</time>
      </trkpt>
      <trkpt lat="47.25651" lon="-1.6826">
        <ele>52</ele>
        <time>2023-11-13T11:36:12Z</time>
      </trkpt>
      <trkpt lat="47.25634" lon="-1.68224">
        <ele>51</ele>
        <time>2023-11-13T11:36:51Z</time>
      </trkpt>
      <trkpt lat="47.25623" lon="-1.68167">
        <ele>51</ele>
        <time>2023-11-13T11:37:45Z</time>
      </trkpt>
      <trkpt lat="47.2561" lon="-1.68105">
        <ele>51</ele>
        <time>2023-11-13T11:38:44Z</time>
      </trkpt>
      <trkpt lat="47.25581" lon="-1.68044">
        <ele>51</ele>
        <time>2023-11-13T11:39:51Z</time>
      </trkpt>
      <trkpt lat="47.25568" lon="-1.67959">
        <ele>50</ele>
        <time>2023-11-13T11:41:10Z</time>
      </trkpt>
      <trkpt lat="47.25567" lon="-1.67894">
        <ele>49</ele>
        <time>2023-11-13T11:42:09Z</time>
      </trkpt>
      <trkpt lat="47.25565" lon="-1.67826">
        <ele>46</ele>
        <time>2023-11-13T11:43:11Z</time>
      </trkpt>
      <trkpt lat="47.25559" lon="-1.67787">
        <ele>45</ele>
        <time>2023-11-13T11:43:47Z</time>
      </trkpt>
      <trkpt lat="47.25545" lon="-1.6777">
        <ele>44</ele>
        <time>2023-11-13T11:44:11Z</time>
      </trkpt>
      <trkpt lat="47.25547" lon="-1.67673">
        <ele>43</ele>
        <time>2023-11-13T11:45:39Z</time>
      </trkpt>
      <trkpt lat="47.25534" lon="-1.6762">
        <ele>43</ele>
        <time>2023-11-13T11:46:30Z</time>
      </trkpt>
      <trkpt lat="47.25507" lon="-1.67468">
        <ele>42</ele>
        <time>2023-11-13T11:48:53Z</time>
      </trkpt>
      <trkpt lat="47.25498" lon="-1.67389">
        <ele>44</ele>
        <time>2023-11-13T11:50:05Z</time>
      </trkpt>
      <trkpt lat="47.25482" lon="-1.67365">
        <ele>45</ele>
        <time>2023-11-13T11:50:36Z</time>
      </trkpt>
      <trkpt lat="47.25453" lon="-1.67329">
        <ele>46</ele>
        <time>2023-11-13T11:51:26Z</time>
      </trkpt>
      <trkpt lat="47.25432" lon="-1.6734">
        <ele>45</ele>
        <time>2023-11-13T11:51:56Z</time>
      </trkpt>
      <trkpt lat="47.25427" lon="-1.67336">
        <ele>45</ele>
        <time>2023-11-13T11:52:03Z</time>
      </trkpt>
      <trkpt lat="47.25421" lon="-1.67325">
        <ele>45</ele>
        <time>2023-11-13T11:52:16Z</time>
      </trkpt>
      <trkpt lat="47.25416" lon="-1.67228">
        <ele>46</ele>
        <time>2023-11-13T11:53:44Z</time>
      </trkpt>
      <trkpt lat="47.25409" lon="-1.67097">
        <ele>48</ele>
        <time>2023-11-13T11:55:43Z</time>
      </trkpt>
      <trkpt lat="47.25399" lon="-1.6698">
        <ele>48</ele>
        <time>2023-11-13T11:57:30Z</time>
      </trkpt>
      <trkpt lat="47.25397" lon="-1.66889">
        <ele>47</ele>
        <time>2023-11-13T11:58:53Z</time>
      </trkpt>
      <trkpt lat="47.25413" lon="-1.66882">
        <ele>47</ele>
        <time>2023-11-13T11:59:15Z</time>
      </trkpt>
      <trkpt lat="47.25415" lon="-1.66872">
        <ele>46</ele>
        <time>2023-11-13T11:59:24Z</time>
      </trkpt>
      <trkpt lat="47.25363" lon="-1.66862">
        <ele>45</ele>
        <time>2023-11-13T12:00:34Z</time>
      </trkpt>
      <trkpt lat="47.25335" lon="-1.66855">
        <ele>45</ele>
        <time>2023-11-13T12:01:12Z</time>
      </trkpt>
      <trkpt lat="47.25336" lon="-1.66743">
        <ele>44</ele>
        <time>2023-11-13T12:02:54Z</time>
      </trkpt>
      <trkpt lat="47.25335" lon="-1.66673">
        <ele>42</ele>
        <time>2023-11-13T12:03:57Z</time>
      </trkpt>
      <trkpt lat="47.25334" lon="-1.66628">
        <ele>42</ele>
        <time>2023-11-13T12:04:38Z</time>
      </trkpt>
      <trkpt lat="47.25331" lon="-1.66583">
        <ele>42</ele>
        <time>2023-11-13T12:05:19Z</time>
      </trkpt>
      <trkpt lat="47.25327" lon="-1.66513">
        <ele>42</ele>
        <time>2023-11-13T12:06:23Z</time>
      </trkpt>
      <trkpt lat="47.25363" lon="-1.66501">
        <ele>43</ele>
        <time>2023-11-13T12:07:12Z</time>
      </trkpt>
      <trkpt lat="47.25383" lon="-1.66507">
        <ele>44</ele>
        <time>2023-11-13T12:07:39Z</time>
      </trkpt>
      <trkpt lat="47.25438" lon="-1.66486">
        <ele>46</ele>
        <time>2023-11-13T12:08:55Z</time>
      </trkpt>
      <trkpt lat="47.25488" lon="-1.66405">
        <ele>48</ele>
        <time>2023-11-13T12:10:34Z</time>
      </trkpt>
      <trkpt lat="47.25483" lon="-1.66384">
        <ele>48</ele>
        <time>2023-11-13T12:10:54Z</time>
      </trkpt>
      <trkpt lat="47.25446" lon="-1.6632">
        <ele>47</ele>
        <time>2023-11-13T12:12:10Z</time>
      </trkpt>
      <trkpt lat="47.25397" lon="-1.66234">
        <ele>46</ele>
        <time>2023-11-13T12:13:52Z</time>
      </trkpt>
      <trkpt lat="47.25364" lon="-1.66175">
        <ele>46</ele>
        <time>2023-11-13T12:15:01Z</time>
      </trkpt>
      <trkpt lat="47.25358" lon="-1.6615">
        <ele>46</ele>
        <time>2023-11-13T12:15:25Z</time>
      </trkpt>
      <trkpt lat="47.25358" lon="-1.66036">
        <ele>46</ele>
        <time>2023-11-13T12:17:09Z</time>
      </trkpt>
      <trkpt lat="47.25363" lon="-1.65944">
        <ele>47</ele>
        <time>2023-11-13T12:18:32Z</time>
      </trkpt>
      <trkpt lat="47.25366" lon="-1.65874">
        <ele>46</ele>
        <time>2023-11-13T12:19:36Z</time>
      </trkpt>
      <trkpt lat="47.25373" lon="-1.65806">
        <ele>46</ele>
        <time>2023-11-13T12:20:38Z</time>
      </trkpt>
      <trkpt lat="47.25382" lon="-1.65788">
        <ele>46</ele>
        <time>2023-11-13T12:20:58Z</time>
      </trkpt>
      <trkpt lat="47.25385" lon="-1.65775">
        <ele>46</ele>
        <time>2023-11-13T12:21:11Z</time>
      </trkpt>
      <trkpt lat="47.25392" lon="-1.65766">
        <ele>46</ele>
        <time>2023-11-13T12:21:23Z</time>
      </trkpt>
      <trkpt lat="47.254" lon="-1.65792">
        <ele>46</ele>
        <time>2023-11-13T12:21:49Z</time>
      </trkpt>
      <trkpt lat="47.25423" lon="-1.65825">
        <ele>45</ele>
        <time>2023-11-13T12:22:32Z</time>
      </trkpt>
      <trkpt lat="47.25484" lon="-1.65847">
        <ele>48</ele>
        <time>2023-11-13T12:23:56Z</time>
      </trkpt>
      <trkpt lat="47.25536" lon="-1.65851">
        <ele>51</ele>
        <time>2023-11-13T12:25:05Z</time>
      </trkpt>
      <trkpt lat="47.25567" lon="-1.65881">
        <ele>52</ele>
        <time>2023-11-13T12:25:55Z</time>
      </trkpt>
      <trkpt lat="47.25599" lon="-1.65916">
        <ele>54</ele>
        <time>2023-11-13T12:26:48Z</time>
      </trkpt>
      <trkpt lat="47.25631" lon="-1.65949">
        <ele>55</ele>
        <time>2023-11-13T12:27:40Z</time>
      </trkpt>
      <trkpt lat="47.25687" lon="-1.66007">
        <ele>56</ele>
        <time>2023-11-13T12:29:11Z</time>
      </trkpt>
      <trkpt lat="47.25722" lon="-1.6593">
        <ele>58</ele>
        <time>2023-11-13T12:30:35Z</time>
      </trkpt>
      <trkpt lat="47.25771" lon="-1.65834">
        <ele>59</ele>
        <time>2023-11-13T12:32:24Z</time>
      </trkpt>
      <trkpt lat="47.25826" lon="-1.65728">
        <ele>62</ele>
        <time>2023-11-13T12:34:25Z</time>
      </trkpt>
      <trkpt lat="47.25863" lon="-1.65655">
        <ele>63</ele>
        <time>2023-11-13T12:35:47Z</time>
      </trkpt>
      <trkpt lat="47.25919" lon="-1.65534">
        <ele>64</ele>
        <time>2023-11-13T12:38:00Z</time>
      </trkpt>
      <trkpt lat="47.25949" lon="-1.65473">
        <ele>65</ele>
        <time>2023-11-13T12:39:08Z</time>
      </trkpt>
      <trkpt lat="47.25948" lon="-1.65454">
        <ele>65</ele>
        <time>2023-11-13T12:39:25Z</time>
      </trkpt>
      <trkpt lat="47.26033" lon="-1.6545">
        <ele>67</ele>
        <time>2023-11-13T12:41:19Z</time>
      </trkpt>
      <trkpt lat="47.26023" lon="-1.65423">
        <ele>66</ele>
        <time>2023-11-13T12:41:47Z</time>
      </trkpt>
      <trkpt lat="47.26013" lon="-1.65394">
        <ele>66</ele>
        <time>2023-11-13T12:42:16Z</time>
      </trkpt>
      <trkpt lat="47.26003" lon="-1.65361">
        <ele>66</ele>
        <time>2023-11-13T12:42:49Z</time>
      </trkpt>
      <trkpt lat="47.25997" lon="-1.65355">
        <ele>66</ele>
        <time>2023-11-13T12:42:59Z</time>
      </trkpt>
      <trkpt lat="47.26017" lon="-1.65317">
        <ele>66</ele>
        <time>2023-11-13T12:43:42Z</time>
      </trkpt>
      <trkpt lat="47.26022" lon="-1.65295">
        <ele>66</ele>
        <time>2023-11-13T12:44:03Z</time>
      </trkpt>
      <trkpt lat="47.26136" lon="-1.65252">
        <ele>66</ele>
        <time>2023-11-13T12:46:40Z</time>
      </trkpt>
      <trkpt lat="47.26203" lon="-1.65225">
        <ele>66</ele>
        <time>2023-11-13T12:48:13Z</time>
      </trkpt>
      <trkpt lat="47.26218" lon="-1.65229">
        <ele>66</ele>
        <time>2023-11-13T12:48:33Z</time>
      </trkpt>
      <trkpt lat="47.26232" lon="-1.65239">
        <ele>66</ele>
        <time>2023-11-13T12:48:54Z</time>
      </trkpt>
      <trkpt lat="47.26291" lon="-1.65227">
        <ele>65</ele>
        <time>2023-11-13T12:50:13Z</time>
      </trkpt>
      <trkpt lat="47.26341" lon="-1.6522">
        <ele>64</ele>
        <time>2023-11-13T12:51:20Z</time>
      </trkpt>
      <trkpt lat="47.26419" lon="-1.65232">
        <ele>62</ele>
        <time>2023-11-13T12:53:05Z</time>
      </trkpt>
      <trkpt lat="47.26487" lon="-1.65243">
        <ele>60</ele>
        <time>2023-11-13T12:54:36Z</time>
      </trkpt>
      <trkpt lat="47.26531" lon="-1.65252">
        <ele>59</ele>
        <time>2023-11-13T12:55:36Z</time>
      </trkpt>
      <trkpt lat="47.2657" lon="-1.65255">
        <ele>58</ele>
        <time>2023-11-13T12:56:28Z</time>
      </trkpt>
      <trkpt lat="47.26596" lon="-1.65265">
        <ele>56</ele>
        <time>2023-11-13T12:57:04Z</time>
      </trkpt>
      <trkpt lat="47.26624" lon="-1.65283">
        <ele>53</ele>
        <time>2023-11-13T12:57:44Z</time>
      </trkpt>
      <trkpt lat="47.26659" lon="-1.65306">
        <ele>50</ele>
        <time>2023-11-13T12:58:36Z</time>
      </trkpt>
      <trkpt lat="47.26685" lon="-1.65322">
        <ele>46</ele>
        <time>2023-11-13T12:59:13Z</time>
      </trkpt>
      <trkpt lat="47.26718" lon="-1.65342">
        <ele>43</ele>
        <time>2023-11-13T13:00:01Z</time>
      </trkpt>
      <trkpt lat="47.26739" lon="-1.65353">
        <ele>41</ele>
        <time>2023-11-13T13:00:31Z</time>
      </trkpt>
      <trkpt lat="47.26756" lon="-1.65387">
        <ele>40</ele>
        <time>2023-11-13T13:01:09Z</time>
      </trkpt>
      <trkpt lat="47.26759" lon="-1.65412">
        <ele>40</ele>
        <time>2023-11-13T13:01:32Z</time>
      </trkpt>
      <trkpt lat="47.26764" lon="-1.65459">
        <ele>39</ele>
        <time>2023-11-13T13:02:15Z</time>
      </trkpt>
      <trkpt lat="47.26768" lon="-1.65523">
        <ele>38</ele>
        <time>2023-11-13T13:03:13Z</time>
      </trkpt>
      <trkpt lat="47.26779" lon="-1.65541">
        <ele>36</ele>
        <time>2023-11-13T13:03:35Z</time>
      </trkpt>
      <trkpt lat="47.26767" lon="-1.65556">
        <ele>37</ele>
        <time>2023-11-13T13:03:56Z</time>
      </trkpt>
      <trkpt lat="47.26734" lon="-1.65602">
        <ele>38</ele>
        <time>2023-11-13T13:04:57Z</time>
      </trkpt>
      <trkpt lat="47.26718" lon="-1.65606">
        <ele>40</ele>
        <time>2023-11-13T13:05:18Z</time>
      </trkpt>
      <trkpt lat="47.26702" lon="-1.65618">
        <ele>41</ele>
        <time>2023-11-13T13:05:42Z</time>
      </trkpt>
      <trkpt lat="47.26679" lon="-1.65625">
        <ele>43</ele>
        <time>2023-11-13T13:06:14Z</time>
      </trkpt>
      <trkpt lat="47.26661" lon="-1.65621">
        <ele>44</ele>
        <time>2023-11-13T13:06:38Z</time>
      </trkpt>
      <trkpt lat="47.26638" lon="-1.65613">
        <ele>45</ele>
        <time>2023-11-13T13:07:09Z</time>
      </trkpt>
      <trkpt lat="47.26608" lon="-1.65603">
        <ele>46</ele>
        <time>2023-11-13T13:07:50Z</time>
      </trkpt>
      <trkpt lat="47.26585" lon="-1.65595">
        <ele>47</ele>
        <time>2023-11-13T13:08:22Z</time>
      </trkpt>
      <trkpt lat="47.26584" lon="-1.65639">
        <ele>45</ele>
        <time>2023-11-13T13:09:02Z</time>
      </trkpt>
      <trkpt lat="47.26584" lon="-1.65713">
        <ele>43</ele>
        <time>2023-11-13T13:10:09Z</time>
      </trkpt>
      <trkpt lat="47.26544" lon="-1.65731">
        <ele>43</ele>
        <time>2023-11-13T13:11:05Z</time>
      </trkpt>
      <trkpt lat="47.26527" lon="-1.65738">
        <ele>43</ele>
        <time>2023-11-13T13:11:28Z</time>
      </trkpt>
      <trkpt lat="47.26516" lon="-1.65747">
        <ele>43</ele>
        <time>2023-11-13T13:11:45Z</time>
      </trkpt>
      <trkpt lat="47.2651" lon="-1.65766">
        <ele>42</ele>
        <time>2023-11-13T13:12:04Z</time>
      </trkpt>
      <trkpt lat="47.26502" lon="-1.65781">
        <ele>41</ele>
        <time>2023-11-13T13:12:21Z</time>
      </trkpt>
      <trkpt lat="47.2651" lon="-1.65857">
        <ele>36</ele>
        <time>2023-11-13T13:13:31Z</time>
      </trkpt>
      <trkpt lat="47.26512" lon="-1.65883">
        <ele>34</ele>
        <time>2023-11-13T13:13:55Z</time>
      </trkpt>
      <trkpt lat="47.26506" lon="-1.65885">
        <ele>34</ele>
        <time>2023-11-13T13:14:03Z</time>
      </trkpt>
      <trkpt lat="47.26511" lon="-1.65911">
        <ele>33</ele>
        <time>2023-11-13T13:14:27Z</time>
      </trkpt>
      <trkpt lat="47.26516" lon="-1.65929">
        <ele>33</ele>
        <time>2023-11-13T13:14:45Z</time>
      </trkpt>
      <trkpt lat="47.26525" lon="-1.65961">
        <ele>34</ele>
        <time>2023-11-13T13:15:16Z</time>
      </trkpt>
      <trkpt lat="47.26526" lon="-1.66016">
        <ele>35</ele>
        <time>2023-11-13T13:16:06Z</time>
      </trkpt>
      <trkpt lat="47.26536" lon="-1.66037">
        <ele>36</ele>
        <time>2023-11-13T13:16:29Z</time>
      </trkpt>
      <trkpt lat="47.26549" lon="-1.6605">
        <ele>37</ele>
        <time>2023-11-13T13:16:50Z</time>
      </trkpt>
      <trkpt lat="47.26569" lon="-1.66057">
        <ele>38</ele>
        <time>2023-11-13T13:17:18Z</time>
      </trkpt>
      <trkpt lat="47.26612" lon="-1.66079">
        <ele>42</ele>
        <time>2023-11-13T13:18:18Z</time>
      </trkpt>
      <trkpt lat="47.26634" lon="-1.66115">
        <ele>43</ele>
        <time>2023-11-13T13:19:02Z</time>
      </trkpt>
      <trkpt lat="47.2664" lon="-1.66163">
        <ele>43</ele>
        <time>2023-11-13T13:19:47Z</time>
      </trkpt>
      <trkpt lat="47.26629" lon="-1.66171">
        <ele>42</ele>
        <time>2023-11-13T13:20:03Z</time>
      </trkpt>
      <trkpt lat="47.26608" lon="-1.6618">
        <ele>40</ele>
        <time>2023-11-13T13:20:32Z</time>
      </trkpt>
      <trkpt lat="47.2661" lon="-1.6619">
        <ele>40</ele>
        <time>2023-11-13T13:20:42Z</time>
      </trkpt>
      <trkpt lat="47.26614" lon="-1.66209">
        <ele>41</ele>
        <time>2023-11-13T13:21:00Z</time>
      </trkpt>
      <trkpt lat="47.266" lon="-1.66248">
        <ele>40</ele>
        <time>2023-11-13T13:21:40Z</time>
      </trkpt>
      <trkpt lat="47.26607" lon="-1.66268">
        <ele>40</ele>
        <time>2023-11-13T13:22:00Z</time>
      </trkpt>
      <trkpt lat="47.26615" lon="-1.663">
        <ele>40</ele>
        <time>2023-11-13T13:22:31Z</time>
      </trkpt>
      <trkpt lat="47.26623" lon="-1.66338">
        <ele>40</ele>
        <time>2023-11-13T13:23:07Z</time>
      </trkpt>
      <trkpt lat="47.26638" lon="-1.66397">
        <ele>41</ele>
        <time>2023-11-13T13:24:04Z</time>
      </trkpt>
      <trkpt lat="47.26656" lon="-1.66454">
        <ele>42</ele>
        <time>2023-11-13T13:25:01Z</time>
      </trkpt>
      <trkpt lat="47.26668" lon="-1.66486">
        <ele>43</ele>
        <time>2023-11-13T13:25:34Z</time>
      </trkpt>
      <trkpt lat="47.26671" lon="-1.6653">
        <ele>45</ele>
        <time>2023-11-13T13:26:14Z</time>
      </trkpt>
      <trkpt lat="47.26671" lon="-1.66556">
        <ele>46</ele>
        <time>2023-11-13T13:26:37Z</time>
      </trkpt>
      <trkpt lat="47.26684" lon="-1.66585">
        <ele>47</ele>
        <time>2023-11-13T13:27:09Z</time>
      </trkpt>
      <trkpt lat="47.26721" lon="-1.66622">
        <ele>45</ele>
        <time>2023-11-13T13:28:09Z</time>
      </trkpt>
      <trkpt lat="47.26721" lon="-1.66607">
        <ele>44</ele>
        <time>2023-11-13T13:28:22Z</time>
      </trkpt>
      <trkpt lat="47.26739" lon="-1.66602">
        <ele>43</ele>
        <time>2023-11-13T13:28:47Z</time>
      </trkpt>
      <trkpt lat="47.26763" lon="-1.66604">
        <ele>43</ele>
        <time>2023-11-13T13:29:19Z</time>
      </trkpt>
      <trkpt lat="47.26773" lon="-1.66626">
        <ele>44</ele>
        <time>2023-11-13T13:29:43Z</time>
      </trkpt>
      <trkpt lat="47.26782" lon="-1.66655">
        <ele>45</ele>
        <time>2023-11-13T13:30:12Z</time>
      </trkpt>
      <trkpt lat="47.26793" lon="-1.66677">
        <ele>45</ele>
        <time>2023-11-13T13:30:36Z</time>
      </trkpt>
      <trkpt lat="47.26808" lon="-1.66709">
        <ele>43</ele>
        <time>2023-11-13T13:31:12Z</time>
      </trkpt>
      <trkpt lat="47.26818" lon="-1.66732">
        <ele>41</ele>
        <time>2023-11-13T13:31:36Z</time>
      </trkpt>
      <trkpt lat="47.26844" lon="-1.66765">
        <ele>40</ele>
        <time>2023-11-13T13:32:22Z</time>
      </trkpt>
      <trkpt lat="47.26887" lon="-1.66789">
        <ele>42</ele>
        <time>2023-11-13T13:33:23Z</time>
      </trkpt>
      <trkpt lat="47.26911" lon="-1.66824">
        <ele>41</ele>
        <time>2023-11-13T13:34:08Z</time>
      </trkpt>
      <trkpt lat="47.26925" lon="-1.66859">
        <ele>42</ele>
        <time>2023-11-13T13:34:45Z</time>
      </trkpt>
      <trkpt lat="47.26932" lon="-1.66895">
        <ele>43</ele>
        <time>2023-11-13T13:35:19Z</time>
      </trkpt>
      <trkpt lat="47.26929" lon="-1.66954">
        <ele>42</ele>
        <time>2023-11-13T13:36:13Z</time>
      </trkpt>
      <trkpt lat="47.26916" lon="-1.67">
        <ele>40</ele>
        <time>2023-11-13T13:36:58Z</time>
      </trkpt>
      <trkpt lat="47.26912" lon="-1.6704">
        <ele>41</ele>
        <time>2023-11-13T13:37:34Z</time>
      </trkpt>
      <trkpt lat="47.26906" lon="-1.67095">
        <ele>42</ele>
        <time>2023-11-13T13:38:25Z</time>
      </trkpt>
      <trkpt lat="47.26898" lon="-1.6713">
        <ele>41</ele>
        <time>2023-11-13T13:38:58Z</time>
      </trkpt>
      <trkpt lat="47.26885" lon="-1.67134">
        <ele>41</ele>
        <time>2023-11-13T13:39:16Z</time>
      </trkpt>
      <trkpt lat="47.26858" lon="-1.67145">
        <ele>40</ele>
        <time>2023-11-13T13:39:53Z</time>
      </trkpt>
      <trkpt lat="47.26837" lon="-1.67137">
        <ele>40</ele>
        <time>2023-11-13T13:40:22Z</time>
      </trkpt>
      <trkpt lat="47.26858" lon="-1.67163">
        <ele>40</ele>
        <time>2023-11-13T13:40:59Z</time>
      </trkpt>
      <trkpt lat="47.26889" lon="-1.67185">
        <ele>40</ele>
        <time>2023-11-13T13:41:45Z</time>
      </trkpt>
      <trkpt lat="47.26925" lon="-1.67193">
        <ele>41</ele>
        <time>2023-11-13T13:42:34Z</time>
      </trkpt>
      <trkpt lat="47.26968" lon="-1.67182">
        <ele>41</ele>
        <time>2023-11-13T13:43:32Z</time>
      </trkpt>
      <trkpt lat="47.27002" lon="-1.67166">
        <ele>42</ele>
        <time>2023-11-13T13:44:19Z</time>
      </trkpt>
      <trkpt lat="47.27032" lon="-1.67167">
        <ele>44</ele>
        <time>2023-11-13T13:44:59Z</time>
      </trkpt>
      <trkpt lat="47.27072" lon="-1.67168">
        <ele>46</ele>
        <time>2023-11-13T13:45:53Z</time>
      </trkpt>
      <trkpt lat="47.27101" lon="-1.67185">
        <ele>47</ele>
        <time>2023-11-13T13:46:34Z</time>
      </trkpt>
      <trkpt lat="47.27115" lon="-1.67207">
        <ele>46</ele>
        <time>2023-11-13T13:47:02Z</time>
      </trkpt>
      <trkpt lat="47.27129" lon="-1.67229">
        <ele>45</ele>
        <time>2023-11-13T13:47:29Z</time>
      </trkpt>
      <trkpt lat="47.27137" lon="-1.67259">
        <ele>44</ele>
        <time>2023-11-13T13:47:58Z</time>
      </trkpt>
      <trkpt lat="47.27141" lon="-1.67295">
        <ele>43</ele>
        <time>2023-11-13T13:48:31Z</time>
      </trkpt>
      <trkpt lat="47.27129" lon="-1.67329">
        <ele>41</ele>
        <time>2023-11-13T13:49:06Z</time>
      </trkpt>
      <trkpt lat="47.27114" lon="-1.6736">
        <ele>41</ele>
        <time>2023-11-13T13:49:40Z</time>
      </trkpt>
      <trkpt lat="47.27096" lon="-1.67362">
        <ele>40</ele>
        <time>2023-11-13T13:50:05Z</time>
      </trkpt>
      <trkpt lat="47.27069" lon="-1.67359">
        <ele>39</ele>
        <time>2023-11-13T13:50:41Z</time>
      </trkpt>
      <trkpt lat="47.27067" lon="-1.67373">
        <ele>40</ele>
        <time>2023-11-13T13:50:54Z</time>
      </trkpt>
      <trkpt lat="47.27066" lon="-1.67401">
        <ele>41</ele>
        <time>2023-11-13T13:51:19Z</time>
      </trkpt>
      <trkpt lat="47.2707" lon="-1.6743">
        <ele>42</ele>
        <time>2023-11-13T13:51:46Z</time>
      </trkpt>
      <trkpt lat="47.27071" lon="-1.67456">
        <ele>42</ele>
        <time>2023-11-13T13:52:09Z</time>
      </trkpt>
      <trkpt lat="47.27071" lon="-1.67489">
        <ele>42</ele>
        <time>2023-11-13T13:52:39Z</time>
      </trkpt>
      <trkpt lat="47.27072" lon="-1.67528">
        <ele>43</ele>
        <time>2023-11-13T13:53:15Z</time>
      </trkpt>
      <trkpt lat="47.27083" lon="-1.67568">
        <ele>43</ele>
        <time>2023-11-13T13:53:54Z</time>
      </trkpt>
      <trkpt lat="47.27083" lon="-1.67571">
        <ele>44</ele>
        <time>2023-11-13T13:53:56Z</time>
      </trkpt>
      <trkpt lat="47.27099" lon="-1.67618">
        <ele>46</ele>
        <time>2023-11-13T13:54:44Z</time>
      </trkpt>
      <trkpt lat="47.27102" lon="-1.67664">
        <ele>49</ele>
        <time>2023-11-13T13:55:26Z</time>
      </trkpt>
      <trkpt lat="47.27107" lon="-1.67702">
        <ele>48</ele>
        <time>2023-11-13T13:56:01Z</time>
      </trkpt>
      <trkpt lat="47.27103" lon="-1.67747">
        <ele>49</ele>
        <time>2023-11-13T13:56:42Z</time>
      </trkpt>
      <trkpt lat="47.27086" lon="-1.67785">
        <ele>48</ele>
        <time>2023-11-13T13:57:23Z</time>
      </trkpt>
      <trkpt lat="47.27076" lon="-1.67838">
        <ele>46</ele>
        <time>2023-11-13T13:58:13Z</time>
      </trkpt>
      <trkpt lat="47.27057" lon="-1.67874">
        <ele>49</ele>
        <time>2023-11-13T13:58:54Z</time>
      </trkpt>
      <trkpt lat="47.27048" lon="-1.67909">
        <ele>50</ele>
        <time>2023-11-13T13:59:28Z</time>
      </trkpt>
      <trkpt lat="47.27044" lon="-1.67951">
        <ele>50</ele>
        <time>2023-11-13T14:00:07Z</time>
      </trkpt>
      <trkpt lat="47.27045" lon="-1.68009">
        <ele>49</ele>
        <time>2023-11-13T14:00:59Z</time>
      </trkpt>
      <trkpt lat="47.27042" lon="-1.68046">
        <ele>50</ele>
        <time>2023-11-13T14:01:33Z</time>
      </trkpt>
      <trkpt lat="47.27054" lon="-1.68082">
        <ele>48</ele>
        <time>2023-11-13T14:02:09Z</time>
      </trkpt>
      <trkpt lat="47.27064" lon="-1.68106">
        <ele>47</ele>
        <time>2023-11-13T14:02:35Z</time>
      </trkpt>
      <trkpt lat="47.27074" lon="-1.68143">
        <ele>47</ele>
        <time>2023-11-13T14:03:11Z</time>
      </trkpt>
      <trkpt lat="47.27066" lon="-1.68176">
        <ele>49</ele>
        <time>2023-11-13T14:03:43Z</time>
      </trkpt>
      <trkpt lat="47.27083" lon="-1.682">
        <ele>47</ele>
        <time>2023-11-13T14:04:14Z</time>
      </trkpt>
      <trkpt lat="47.271" lon="-1.68223">
        <ele>46</ele>
        <time>2023-11-13T14:04:45Z</time>
      </trkpt>
      <trkpt lat="47.27124" lon="-1.68252">
        <ele>46</ele>
        <time>2023-11-13T14:05:26Z</time>
      </trkpt>
      <trkpt lat="47.27137" lon="-1.68275">
        <ele>47</ele>
        <time>2023-11-13T14:05:53Z</time>
      </trkpt>
      <trkpt lat="47.27154" lon="-1.683">
        <ele>49</ele>
        <time>2023-11-13T14:06:25Z</time>
      </trkpt>
      <trkpt lat="47.27166" lon="-1.68327">
        <ele>50</ele>
        <time>2023-11-13T14:06:55Z</time>
      </trkpt>
      <trkpt lat="47.2718" lon="-1.68366">
        <ele>52</ele>
        <time>2023-11-13T14:07:35Z</time>
      </trkpt>
      <trkpt lat="47.27194" lon="-1.68398">
        <ele>53</ele>
        <time>2023-11-13T14:08:09Z</time>
      </trkpt>
      <trkpt lat="47.27209" lon="-1.68425">
        <ele>55</ele>
        <time>2023-11-13T14:08:41Z</time>
      </trkpt>
      <trkpt lat="47.27191" lon="-1.68468">
        <ele>56</ele>
        <time>2023-11-13T14:09:26Z</time>
      </trkpt>
      <trkpt lat="47.27175" lon="-1.68497">
        <ele>57</ele>
        <time>2023-11-13T14:10:00Z</time>
      </trkpt>
      <trkpt lat="47.27122" lon="-1.6851">
        <ele>58</ele>
        <time>2023-11-13T14:11:12Z</time>
      </trkpt>
      <trkpt lat="47.27095" lon="-1.68513">
        <ele>59</ele>
        <time>2023-11-13T14:11:48Z</time>
      </trkpt>
      <trkpt lat="47.27098" lon="-1.68552">
        <ele>61</ele>
        <time>2023-11-13T14:12:24Z</time>
      </trkpt>
      <trkpt lat="47.27074" lon="-1.6862">
        <ele>64</ele>
        <time>2023-11-13T14:13:33Z</time>
      </trkpt>
      <trkpt lat="47.27084" lon="-1.6864">
        <ele>65</ele>
        <time>2023-11-13T14:13:55Z</time>
      </trkpt>
      <trkpt lat="47.27099" lon="-1.68666">
        <ele>65</ele>
        <time>2023-11-13T14:14:26Z</time>
      </trkpt>
      <trkpt lat="47.27111" lon="-1.6869">
        <ele>65</ele>
        <time>2023-11-13T14:14:53Z</time>
      </trkpt>
      <trkpt lat="47.2711" lon="-1.68713">
        <ele>65</ele>
        <time>2023-11-13T14:15:14Z</time>
      </trkpt>
      <trkpt lat="47.27097" lon="-1.68743">
        <ele>66</ele>
        <time>2023-11-13T14:15:46Z</time>
      </trkpt>
      <trkpt lat="47.27083" lon="-1.68774">
        <ele>66</ele>
        <time>2023-11-13T14:16:20Z</time>
      </trkpt>
      <trkpt lat="47.27067" lon="-1.68758">
        <ele>67</ele>
        <time>2023-11-13T14:16:46Z</time>
      </trkpt>
      <trkpt lat="47.27041" lon="-1.68729">
        <ele>67</ele>
        <time>2023-11-13T14:17:29Z</time>
      </trkpt>
      <trkpt lat="47.26982" lon="-1.68702">
        <ele>67</ele>
        <time>2023-11-13T14:18:52Z</time>
      </trkpt>
      <trkpt lat="47.26932" lon="-1.68678">
        <ele>66</ele>
        <time>2023-11-13T14:20:02Z</time>
      </trkpt>
      <trkpt lat="47.26893" lon="-1.68656">
        <ele>66</ele>
        <time>2023-11-13T14:20:58Z</time>
      </trkpt>
      <trkpt lat="47.26864" lon="-1.68619">
        <ele>67</ele>
        <time>2023-11-13T14:21:49Z</time>
      </trkpt>
      <trkpt lat="47.26829" lon="-1.6857">
        <ele>68</ele>
        <time>2023-11-13T14:22:53Z</time>
      </trkpt>
      <trkpt lat="47.26804" lon="-1.68536">
        <ele>68</ele>
        <time>2023-11-13T14:23:39Z</time>
      </trkpt>
      <trkpt lat="47.26766" lon="-1.6848">
        <ele>68</ele>
        <time>2023-11-13T14:24:51Z</time>
      </trkpt>
      <trkpt lat="47.26733" lon="-1.68401">
        <ele>68</ele>
        <time>2023-11-13T14:26:15Z</time>
      </trkpt>
      <trkpt lat="47.26707" lon="-1.68347">
        <ele>67</ele>
        <time>2023-11-13T14:27:15Z</time>
      </trkpt>
      <trkpt lat="47.26684" lon="-1.6827">
        <ele>67</ele>
        <time>2023-11-13T14:28:31Z</time>
      </trkpt>
      <trkpt lat="47.26653" lon="-1.68183">
        <ele>69</ele>
        <time>2023-11-13T14:30:00Z</time>
      </trkpt>
      <trkpt lat="47.2661" lon="-1.68054">
        <ele>69</ele>
        <time>2023-11-13T14:32:10Z</time>
      </trkpt>
      <trkpt lat="47.26568" lon="-1.6792">
        <ele>67</ele>
        <time>2023-11-13T14:34:23Z</time>
      </trkpt>
      <trkpt lat="47.26529" lon="-1.67942">
        <ele>68</ele>
        <time>2023-11-13T14:35:19Z</time>
      </trkpt>
    </trkseg>
  </trk>
</gpx>